createdAt,value
2019-05-11T00:00:39.021Z,1003.66
2019-05-11T00:01:38.990Z,1003.58
2019-05-11T00:02:38.978Z,1003.54
2019-05-11T00:03:38.967Z,1003.54
2019-05-11T00:04:38.957Z,1003.52
2019-05-11T00:05:38.952Z,1003.54
2019-05-11T00:06:38.942Z,1003.53
2019-05-11T00:07:38.943Z,1003.58
2019-05-11T00:08:38.927Z,1003.58
2019-05-11T00:09:38.920Z,1003.57
2019-05-11T00:10:38.913Z,1003.60
2019-05-11T00:11:38.902Z,1003.63
2019-05-11T00:12:38.870Z,1003.64
2019-05-11T00:13:38.866Z,1003.61
2019-05-11T00:14:38.867Z,1003.62
2019-05-11T00:15:38.849Z,1003.63
2019-05-11T00:16:38.836Z,1003.60
2019-05-11T00:17:38.815Z,1003.62
2019-05-11T00:18:38.819Z,1003.64
2019-05-11T00:19:38.797Z,1003.63
2019-05-11T00:20:38.814Z,1003.62
2019-05-11T00:21:38.767Z,1003.64
2019-05-11T00:22:38.762Z,1003.61
2019-05-11T00:23:38.755Z,1003.62
2019-05-11T00:24:38.747Z,1003.61
2019-05-11T00:25:38.726Z,1003.62
2019-05-11T00:26:38.725Z,1003.65
2019-05-11T00:27:38.699Z,1003.66
2019-05-11T00:28:38.688Z,1003.65
2019-05-11T00:29:38.685Z,1003.63
2019-05-11T00:30:38.705Z,1003.69
2019-05-11T00:31:38.661Z,1003.70
2019-05-11T00:32:38.644Z,1003.70
2019-05-11T00:33:38.644Z,1003.69
2019-05-11T00:34:38.668Z,1003.66
2019-05-11T00:35:38.610Z,1003.71
2019-05-11T00:36:38.610Z,1003.69
2019-05-11T00:37:38.597Z,1003.67
2019-05-11T00:38:38.589Z,1003.72
2019-05-11T00:39:38.567Z,1003.67
2019-05-11T00:40:38.576Z,1003.69
2019-05-11T00:41:38.560Z,1003.65
2019-05-11T00:42:38.538Z,1003.65
2019-05-11T00:43:38.525Z,1003.66
2019-05-11T00:44:38.521Z,1003.59
2019-05-11T00:45:38.513Z,1003.60
2019-05-11T00:46:38.520Z,1003.60
2019-05-11T00:47:38.476Z,1003.61
2019-05-11T00:48:38.475Z,1003.60
2019-05-11T00:49:38.462Z,1003.59
2019-05-11T00:50:39.900Z,1003.60
2019-05-11T00:51:38.437Z,1003.63
2019-05-11T00:52:38.428Z,1003.57
2019-05-11T00:53:38.438Z,1003.56
2019-05-11T00:54:38.418Z,1003.55
2019-05-11T00:55:38.420Z,1003.48
2019-05-11T00:56:38.381Z,1003.46
2019-05-11T00:57:38.375Z,1003.44
2019-05-11T00:58:38.365Z,1003.44
2019-05-11T00:59:38.360Z,1003.46
2019-05-11T01:00:38.339Z,1003.49
2019-05-11T01:01:38.349Z,1003.47
2019-05-11T01:02:38.308Z,1003.47
2019-05-11T01:03:38.310Z,1003.43
2019-05-11T01:04:38.315Z,1003.40
2019-05-11T01:05:38.282Z,1003.37
2019-05-11T01:06:38.294Z,1003.42
2019-05-11T01:07:38.265Z,1003.44
2019-05-11T01:08:38.262Z,1003.43
2019-05-11T01:09:38.243Z,1003.45
2019-05-11T01:10:41.958Z,1003.46
2019-05-11T01:11:38.218Z,1003.44
2019-05-11T01:12:38.196Z,1003.43
2019-05-11T01:13:38.188Z,1003.43
2019-05-11T01:14:38.185Z,1003.42
2019-05-11T01:15:38.170Z,1003.36
2019-05-11T01:16:38.183Z,1003.36
2019-05-11T01:17:38.155Z,1003.31
2019-05-11T01:18:38.167Z,1003.29
2019-05-11T01:19:38.162Z,1003.31
2019-05-11T01:20:38.180Z,1003.32
2019-05-11T01:21:38.154Z,1003.33
2019-05-11T01:22:38.088Z,1003.32
2019-05-11T01:23:38.078Z,1003.26
2019-05-11T01:24:38.065Z,1003.27
2019-05-11T01:25:38.050Z,1003.24
2019-05-11T01:26:38.056Z,1003.24
2019-05-11T01:27:38.035Z,1003.22
2019-05-11T01:28:38.018Z,1003.16
2019-05-11T01:29:38.016Z,1003.17
2019-05-11T01:30:38.840Z,1003.15
2019-05-11T01:31:37.985Z,1003.09
2019-05-11T01:32:37.998Z,1003.02
2019-05-11T01:33:37.960Z,1003.00
2019-05-11T01:34:37.966Z,1003.02
2019-05-11T01:35:37.937Z,1003.03
2019-05-11T01:36:37.928Z,1003.03
2019-05-11T01:37:37.926Z,1003.03
2019-05-11T01:38:37.915Z,1003.06
2019-05-11T01:39:37.913Z,1003.12
2019-05-11T01:40:37.889Z,1003.13
2019-05-11T01:41:37.873Z,1003.10
2019-05-11T01:42:37.878Z,1003.11
2019-05-11T01:43:37.877Z,1003.13
2019-05-11T01:44:37.841Z,1003.12
2019-05-11T01:45:37.842Z,1003.10
2019-05-11T01:46:37.828Z,1003.05
2019-05-11T01:47:37.817Z,1003.04
2019-05-11T01:48:37.802Z,1003.04
2019-05-11T01:49:37.791Z,1003.05
2019-05-11T01:50:37.787Z,1003.04
2019-05-11T01:51:37.767Z,1003.04
2019-05-11T01:52:37.802Z,1003.05
2019-05-11T01:53:37.737Z,1003.08
2019-05-11T01:54:37.750Z,1003.05
2019-05-11T01:55:37.720Z,1003.04
2019-05-11T01:56:37.710Z,1003.07
2019-05-11T01:57:37.708Z,1003.02
2019-05-11T01:58:37.681Z,1003.01
2019-05-11T01:59:37.680Z,1002.96
2019-05-11T02:00:37.664Z,1002.96
2019-05-11T02:01:37.648Z,1002.90
2019-05-11T02:02:37.642Z,1002.86
2019-05-11T02:03:37.627Z,1002.81
2019-05-11T02:04:37.625Z,1002.78
2019-05-11T02:05:37.603Z,1002.79
2019-05-11T02:06:37.602Z,1002.78
2019-05-11T02:07:37.609Z,1002.80
2019-05-11T02:08:37.568Z,1002.87
2019-05-11T02:09:37.563Z,1002.81
2019-05-11T02:10:37.555Z,1002.89
2019-05-11T02:11:37.549Z,1002.88
2019-05-11T02:12:37.559Z,1002.89
2019-05-11T02:13:37.523Z,1002.89
2019-05-11T02:14:37.547Z,1002.87
2019-05-11T02:15:37.511Z,1002.86
2019-05-11T02:16:37.483Z,1002.87
2019-05-11T02:17:37.484Z,1002.89
2019-05-11T02:18:37.469Z,1002.88
2019-05-11T02:19:37.573Z,1002.90
2019-05-11T02:20:37.505Z,1002.91
2019-05-11T02:21:37.427Z,1002.91
2019-05-11T02:22:37.420Z,1003.02
2019-05-11T02:23:37.431Z,1002.97
2019-05-11T02:24:37.409Z,1003.05
2019-05-11T02:25:37.384Z,1003.06
2019-05-11T02:26:37.453Z,1003.08
2019-05-11T02:27:37.371Z,1003.08
2019-05-11T02:28:37.352Z,1003.06
2019-05-11T02:29:37.335Z,1003.06
2019-05-11T02:30:37.348Z,1003.08
2019-05-11T02:31:37.327Z,1003.00
2019-05-11T02:32:37.316Z,1003.03
2019-05-11T02:33:37.305Z,1002.99
2019-05-11T02:34:37.290Z,1002.96
2019-05-11T02:35:37.393Z,1002.92
2019-05-11T02:36:37.373Z,1002.90
2019-05-11T02:37:37.269Z,1002.99
2019-05-11T02:38:37.253Z,1002.90
2019-05-11T02:39:37.238Z,1002.88
2019-05-11T02:40:37.232Z,1002.91
2019-05-11T02:41:37.682Z,1002.90
2019-05-11T02:42:37.222Z,1002.90
2019-05-11T02:43:37.202Z,1002.92
2019-05-11T02:44:37.201Z,1002.95
2019-05-11T02:45:37.251Z,1002.94
2019-05-11T02:46:37.152Z,1002.99
2019-05-11T02:47:37.142Z,1002.97
2019-05-11T02:48:37.147Z,1003.03
2019-05-11T02:49:37.189Z,1003.02
2019-05-11T02:50:37.129Z,1002.99
2019-05-11T02:51:37.115Z,1003.04
2019-05-11T02:52:37.084Z,1003.03
2019-05-11T02:53:37.114Z,1003.01
2019-05-11T02:54:37.068Z,1003.03
2019-05-11T02:55:37.053Z,1002.95
2019-05-11T02:56:37.061Z,1002.94
2019-05-11T02:57:37.035Z,1002.94
2019-05-11T02:58:37.034Z,1002.91
2019-05-11T02:59:37.014Z,1002.85
2019-05-11T03:00:37.032Z,1002.89
2019-05-11T03:01:36.991Z,1002.82
2019-05-11T03:02:36.971Z,1002.85
2019-05-11T03:03:36.961Z,1002.88
2019-05-11T03:04:36.967Z,1002.81
2019-05-11T03:05:36.951Z,1002.81
2019-05-11T03:06:36.944Z,1002.79
2019-05-11T03:07:36.926Z,1002.81
2019-05-11T03:08:36.925Z,1002.77
2019-05-11T03:09:36.931Z,1002.74
2019-05-11T03:10:36.884Z,1002.74
2019-05-11T03:11:54.034Z,1002.76
2019-05-11T03:12:37.873Z,1002.76
2019-05-11T03:13:36.856Z,1002.74
2019-05-11T03:14:36.845Z,1002.76
2019-05-11T03:15:36.838Z,1002.75
2019-05-11T03:16:36.815Z,1002.74
2019-05-11T03:17:36.807Z,1002.74
2019-05-11T03:18:36.790Z,1002.74
2019-05-11T03:19:36.791Z,1002.73
2019-05-11T03:20:36.784Z,1002.73
2019-05-11T03:21:36.757Z,1002.82
2019-05-11T03:22:36.749Z,1002.80
2019-05-11T03:23:36.737Z,1002.81
2019-05-11T03:24:36.730Z,1002.82
2019-05-11T03:25:36.714Z,1002.83
2019-05-11T03:26:36.716Z,1002.86
2019-05-11T03:27:36.714Z,1002.88
2019-05-11T03:28:36.701Z,1002.82
2019-05-11T03:29:36.678Z,1002.83
2019-05-11T03:30:36.697Z,1002.79
2019-05-11T03:31:36.646Z,1002.82
2019-05-11T03:32:36.640Z,1002.79
2019-05-11T03:33:36.645Z,1002.78
2019-05-11T03:34:36.622Z,1002.84
2019-05-11T03:35:36.622Z,1002.84
2019-05-11T03:36:36.592Z,1002.81
2019-05-11T03:37:36.578Z,1002.76
2019-05-11T03:38:36.570Z,1002.75
2019-05-11T03:39:36.582Z,1002.78
2019-05-11T03:40:36.547Z,1002.74
2019-05-11T03:41:36.551Z,1002.68
2019-05-11T03:42:36.523Z,1002.70
2019-05-11T03:43:36.512Z,1002.68
2019-05-11T03:44:36.505Z,1002.71
2019-05-11T03:45:36.496Z,1002.66
2019-05-11T03:46:36.488Z,1002.64
2019-05-11T03:47:36.493Z,1002.72
2019-05-11T03:48:36.474Z,1002.73
2019-05-11T03:49:36.485Z,1002.73
2019-05-11T03:50:36.464Z,1002.77
2019-05-11T03:51:36.425Z,1002.75
2019-05-11T03:52:36.416Z,1002.75
2019-05-11T03:53:36.403Z,1002.75
2019-05-11T03:54:36.399Z,1002.72
2019-05-11T03:55:36.397Z,1002.70
2019-05-11T03:56:36.374Z,1002.67
2019-05-11T03:57:36.354Z,1002.69
2019-05-11T03:58:36.347Z,1002.70
2019-05-11T03:59:36.351Z,1002.68
2019-05-11T04:00:36.323Z,1002.70
2019-05-11T04:01:36.359Z,1002.68
2019-05-11T04:02:36.320Z,1002.69
2019-05-11T04:03:36.329Z,1002.68
2019-05-11T04:04:36.306Z,1002.63
2019-05-11T04:05:36.289Z,1002.64
2019-05-11T04:06:36.256Z,1002.60
2019-05-11T04:07:36.251Z,1002.63
2019-05-11T04:08:36.252Z,1002.62
2019-05-11T04:09:36.224Z,1002.60
2019-05-11T04:10:36.256Z,1002.56
2019-05-11T04:11:36.208Z,1002.55
2019-05-11T04:12:36.207Z,1002.58
2019-05-11T04:13:36.184Z,1002.59
2019-05-11T04:14:36.190Z,1002.62
2019-05-11T04:15:36.170Z,1002.62
2019-05-11T04:16:36.153Z,1002.62
2019-05-11T04:17:36.142Z,1002.60
2019-05-11T04:18:36.124Z,1002.60
2019-05-11T04:19:36.122Z,1002.63
2019-05-11T04:20:36.107Z,1002.59
2019-05-11T04:21:36.188Z,1002.63
2019-05-11T04:22:36.103Z,1002.62
2019-05-11T04:23:36.085Z,1002.62
2019-05-11T04:24:36.068Z,1002.65
2019-05-11T04:25:36.082Z,1002.66
2019-05-11T04:26:36.104Z,1002.62
2019-05-11T04:27:36.037Z,1002.66
2019-05-11T04:28:36.040Z,1002.63
2019-05-11T04:29:36.005Z,1002.58
2019-05-11T04:30:36.007Z,1002.59
2019-05-11T04:31:35.989Z,1002.59
2019-05-11T04:32:35.975Z,1002.57
2019-05-11T04:33:35.977Z,1002.57
2019-05-11T04:34:35.943Z,1002.57
2019-05-11T04:35:35.951Z,1002.59
2019-05-11T04:36:35.947Z,1002.58
2019-05-11T04:37:35.922Z,1002.57
2019-05-11T04:38:35.900Z,1002.56
2019-05-11T04:39:35.901Z,1002.55
2019-05-11T04:40:35.910Z,1002.53
2019-05-11T04:41:35.907Z,1002.55
2019-05-11T04:42:53.201Z,1002.55
2019-05-11T04:43:36.850Z,1002.57
2019-05-11T04:44:35.832Z,1002.56
2019-05-11T04:45:35.818Z,1002.59
2019-05-11T04:46:35.851Z,1002.56
2019-05-11T04:47:35.798Z,1002.61
2019-05-11T04:48:35.796Z,1002.64
2019-05-11T04:49:35.782Z,1002.61
2019-05-11T04:50:35.761Z,1002.63
2019-05-11T04:51:35.760Z,1002.60
2019-05-11T04:52:35.740Z,1002.61
2019-05-11T04:53:35.734Z,1002.64
2019-05-11T04:54:35.717Z,1002.63
2019-05-11T04:55:35.716Z,1002.65
2019-05-11T04:56:35.728Z,1002.64
2019-05-11T04:57:35.693Z,1002.62
2019-05-11T04:58:35.682Z,1002.61
2019-05-11T04:59:35.685Z,1002.63
2019-05-11T05:00:35.671Z,1002.61
2019-05-11T05:01:35.673Z,1002.62
2019-05-11T05:02:35.640Z,1002.61
2019-05-11T05:03:40.833Z,1002.60
2019-05-11T05:04:36.616Z,1002.59
2019-05-11T05:05:35.599Z,1002.60
2019-05-11T05:06:38.828Z,1002.60
2019-05-11T05:07:35.584Z,1002.66
2019-05-11T05:08:35.596Z,1002.63
2019-05-11T05:09:42.001Z,1002.62
2019-05-11T05:10:36.545Z,1002.66
2019-05-11T05:11:36.605Z,1002.68
2019-05-11T05:12:35.517Z,1002.65
2019-05-11T05:13:35.508Z,1002.65
2019-05-11T05:14:35.513Z,1002.64
2019-05-11T05:15:35.494Z,1002.68
2019-05-11T05:16:35.478Z,1002.63
2019-05-11T05:17:35.459Z,1002.63
2019-05-11T05:18:35.474Z,1002.69
2019-05-11T05:19:35.453Z,1002.67
2019-05-11T05:20:35.462Z,1002.71
2019-05-11T05:21:35.423Z,1002.74
2019-05-11T05:22:35.405Z,1002.71
2019-05-11T05:23:35.393Z,1002.74
2019-05-11T05:24:35.382Z,1002.75
2019-05-11T05:25:35.385Z,1002.77
2019-05-11T05:26:35.397Z,1002.76
2019-05-11T05:27:35.350Z,1002.76
2019-05-11T05:28:35.339Z,1002.75
2019-05-11T05:29:35.328Z,1002.78
2019-05-11T05:30:35.319Z,1002.79
2019-05-11T05:31:35.318Z,1002.78
2019-05-11T05:32:35.347Z,1002.73
2019-05-11T05:33:35.294Z,1002.77
2019-05-11T05:34:35.288Z,1002.80
2019-05-11T05:35:35.275Z,1002.78
2019-05-11T05:36:35.284Z,1002.78
2019-05-11T05:37:35.269Z,1002.81
2019-05-11T05:38:35.245Z,1002.80
2019-05-11T05:39:35.228Z,1002.83
2019-05-11T05:40:35.229Z,1002.79
2019-05-11T05:41:35.395Z,1002.80
2019-05-11T05:42:35.207Z,1002.84
2019-05-11T05:43:35.188Z,1002.77
2019-05-11T05:44:35.166Z,1002.79
2019-05-11T05:45:35.165Z,1002.79
2019-05-11T05:46:35.146Z,1002.82
2019-05-11T05:47:35.143Z,1002.84
2019-05-11T05:48:35.134Z,1002.81
2019-05-11T05:49:35.108Z,1002.89
2019-05-11T05:50:35.109Z,1002.88
2019-05-11T05:51:35.088Z,1002.87
2019-05-11T05:52:35.081Z,1002.89
2019-05-11T05:53:35.074Z,1002.89
2019-05-11T05:54:35.057Z,1002.87
2019-05-11T05:55:35.063Z,1002.89
2019-05-11T05:56:35.026Z,1002.92
2019-05-11T05:57:35.047Z,1002.93
2019-05-11T05:58:35.029Z,1002.88
2019-05-11T05:59:34.995Z,1002.90
2019-05-11T06:00:35.008Z,1002.91
2019-05-11T06:01:34.974Z,1002.89
2019-05-11T06:02:34.970Z,1002.94
2019-05-11T06:03:34.951Z,1002.93
2019-05-11T06:04:34.946Z,1002.97
2019-05-11T06:05:34.928Z,1002.98
2019-05-11T06:06:34.935Z,1002.98
2019-05-11T06:07:34.928Z,1002.97
2019-05-11T06:08:34.894Z,1002.98
2019-05-11T06:09:34.885Z,1002.97
2019-05-11T06:10:34.871Z,1002.96
2019-05-11T06:11:34.861Z,1002.97
2019-05-11T06:12:34.856Z,1002.94
2019-05-11T06:13:45.061Z,1002.98
2019-05-11T06:14:35.826Z,1002.94
2019-05-11T06:15:34.817Z,1002.95
2019-05-11T06:16:34.809Z,1003.00
2019-05-11T06:17:34.805Z,1002.98
2019-05-11T06:18:34.792Z,1002.96
2019-05-11T06:19:34.780Z,1002.93
2019-05-11T06:20:34.766Z,1002.90
2019-05-11T06:21:34.753Z,1002.95
2019-05-11T06:22:34.742Z,1002.90
2019-05-11T06:23:34.731Z,1002.94
2019-05-11T06:24:34.716Z,1002.97
2019-05-11T06:25:34.712Z,1002.97
2019-05-11T06:26:34.697Z,1003.00
2019-05-11T06:27:34.687Z,1002.98
2019-05-11T06:28:34.674Z,1002.93
2019-05-11T06:29:34.671Z,1002.98
2019-05-11T06:30:34.651Z,1002.92
2019-05-11T06:31:34.642Z,1002.93
2019-05-11T06:32:34.645Z,1002.94
2019-05-11T06:33:34.637Z,1002.96
2019-05-11T06:34:34.690Z,1002.94
2019-05-11T06:35:34.596Z,1002.97
2019-05-11T06:36:34.596Z,1002.99
2019-05-11T06:37:34.600Z,1002.95
2019-05-11T06:38:34.568Z,1002.95
2019-05-11T06:39:34.553Z,1002.96
2019-05-11T06:40:34.545Z,1003.00
2019-05-11T06:41:34.556Z,1003.00
2019-05-11T06:42:34.527Z,1003.02
2019-05-11T06:43:34.530Z,1003.00
2019-05-11T06:44:34.516Z,1003.01
2019-05-11T06:45:34.492Z,1003.02
2019-05-11T06:46:35.111Z,1003.07
2019-05-11T06:47:34.476Z,1003.06
2019-05-11T06:48:34.474Z,1003.06
2019-05-11T06:49:34.456Z,1003.10
2019-05-11T06:50:34.434Z,1003.10
2019-05-11T06:51:34.419Z,1003.16
2019-05-11T06:52:34.418Z,1003.19
2019-05-11T06:53:34.418Z,1003.17
2019-05-11T06:54:34.396Z,1003.15
2019-05-11T06:55:34.394Z,1003.15
2019-05-11T06:56:34.377Z,1003.20
2019-05-11T06:57:34.387Z,1003.21
2019-05-11T06:58:34.346Z,1003.25
2019-05-11T06:59:34.334Z,1003.26
2019-05-11T07:00:34.324Z,1003.27
2019-05-11T07:01:34.324Z,1003.25
2019-05-11T07:02:34.301Z,1003.24
2019-05-11T07:03:34.303Z,1003.27
2019-05-11T07:04:34.277Z,1003.32
2019-05-11T07:05:34.289Z,1003.31
2019-05-11T07:06:34.256Z,1003.29
2019-05-11T07:07:46.472Z,1003.28
2019-05-11T07:08:35.247Z,1003.30
2019-05-11T07:09:34.225Z,1003.33
2019-05-11T07:10:34.213Z,1003.30
2019-05-11T07:11:34.203Z,1003.28
2019-05-11T07:12:34.195Z,1003.29
2019-05-11T07:13:34.191Z,1003.32
2019-05-11T07:14:34.186Z,1003.33
2019-05-11T07:15:34.171Z,1003.33
2019-05-11T07:16:34.142Z,1003.32
2019-05-11T07:17:34.140Z,1003.34
2019-05-11T07:18:34.125Z,1003.39
2019-05-11T07:19:34.105Z,1003.38
2019-05-11T07:20:48.279Z,1003.39
2019-05-11T07:21:35.092Z,1003.38
2019-05-11T07:22:34.091Z,1003.35
2019-05-11T07:23:34.061Z,1003.39
2019-05-11T07:24:34.056Z,1003.34
2019-05-11T07:25:34.050Z,1003.32
2019-05-11T07:26:34.033Z,1003.38
2019-05-11T07:27:34.020Z,1003.32
2019-05-11T07:28:34.006Z,1003.34
2019-05-11T07:29:33.996Z,1003.36
2019-05-11T07:30:33.981Z,1003.38
2019-05-11T07:31:33.985Z,1003.36
2019-05-11T07:32:33.962Z,1003.41
2019-05-11T07:33:33.975Z,1003.40
2019-05-11T07:34:33.955Z,1003.46
2019-05-11T07:35:33.924Z,1003.43
2019-05-11T07:36:33.916Z,1003.45
2019-05-11T07:37:33.911Z,1003.45
2019-05-11T07:38:33.910Z,1003.48
2019-05-11T07:39:33.904Z,1003.43
2019-05-11T07:40:33.885Z,1003.49
2019-05-11T07:41:33.865Z,1003.44
2019-05-11T07:42:33.853Z,1003.46
2019-05-11T07:43:33.857Z,1003.44
2019-05-11T07:44:37.869Z,1003.43
2019-05-11T07:45:33.850Z,1003.47
2019-05-11T07:46:33.817Z,1003.47
2019-05-11T07:47:33.798Z,1003.46
2019-05-11T07:48:33.790Z,1003.46
2019-05-11T07:49:33.787Z,1003.49
2019-05-11T07:50:33.767Z,1003.53
2019-05-11T07:51:33.784Z,1003.57
2019-05-11T07:52:33.736Z,1003.58
2019-05-11T07:53:33.741Z,1003.56
2019-05-11T07:54:33.730Z,1003.63
2019-05-11T07:55:33.702Z,1003.61
2019-05-11T07:56:33.697Z,1003.65
2019-05-11T07:57:33.704Z,1003.66
2019-05-11T07:58:33.669Z,1003.71
2019-05-11T07:59:33.663Z,1003.67
2019-05-11T08:00:36.519Z,1003.72
2019-05-11T08:01:34.638Z,1003.75
2019-05-11T08:02:33.631Z,1003.77
2019-05-11T08:03:33.628Z,1003.73
2019-05-11T08:04:33.615Z,1003.77
2019-05-11T08:05:33.616Z,1003.77
2019-05-11T08:06:33.599Z,1003.82
2019-05-11T08:07:33.586Z,1003.83
2019-05-11T08:08:33.558Z,1003.87
2019-05-11T08:09:33.574Z,1003.88
2019-05-11T08:10:33.852Z,1003.92
2019-05-11T08:11:33.557Z,1003.91
2019-05-11T08:12:33.511Z,1003.92
2019-05-11T08:13:33.501Z,1003.97
2019-05-11T08:14:33.525Z,1003.96
2019-05-11T08:15:33.482Z,1003.97
2019-05-11T08:16:33.467Z,1003.97
2019-05-11T08:17:33.461Z,1004.01
2019-05-11T08:18:33.447Z,1004.03
2019-05-11T08:19:33.447Z,1004.02
2019-05-11T08:20:33.427Z,1004.06
2019-05-11T08:21:33.410Z,1004.05
2019-05-11T08:22:33.405Z,1004.09
2019-05-11T08:23:33.401Z,1004.11
2019-05-11T08:24:33.378Z,1004.08
2019-05-11T08:25:33.388Z,1004.11
2019-05-11T08:26:33.374Z,1004.18
2019-05-11T08:27:33.358Z,1004.18
2019-05-11T08:28:33.347Z,1004.19
2019-05-11T08:29:33.324Z,1004.23
2019-05-11T08:30:33.344Z,1004.19
2019-05-11T08:31:33.306Z,1004.20
2019-05-11T08:32:33.328Z,1004.19
2019-05-11T08:33:33.277Z,1004.26
2019-05-11T08:34:33.267Z,1004.30
2019-05-11T08:35:33.288Z,1004.27
2019-05-11T08:36:33.252Z,1004.27
2019-05-11T08:37:33.250Z,1004.28
2019-05-11T08:38:33.252Z,1004.31
2019-05-11T08:39:33.225Z,1004.36
2019-05-11T08:40:33.205Z,1004.33
2019-05-11T08:41:33.207Z,1004.38
2019-05-11T08:42:33.207Z,1004.36
2019-05-11T08:43:33.185Z,1004.36
2019-05-11T08:44:33.166Z,1004.34
2019-05-11T08:45:33.153Z,1004.37
2019-05-11T08:46:33.190Z,1004.38
2019-05-11T08:47:33.125Z,1004.37
2019-05-11T08:48:33.126Z,1004.37
2019-05-11T08:49:33.099Z,1004.32
2019-05-11T08:50:33.101Z,1004.34
2019-05-11T08:51:33.125Z,1004.40
2019-05-11T08:52:33.081Z,1004.43
2019-05-11T08:53:33.072Z,1004.45
2019-05-11T08:54:33.059Z,1004.40
2019-05-11T08:55:33.051Z,1004.47
2019-05-11T08:56:33.034Z,1004.46
2019-05-11T08:57:33.014Z,1004.49
2019-05-11T08:58:33.010Z,1004.51
2019-05-11T08:59:33.006Z,1004.52
2019-05-11T09:00:33.366Z,1004.52
2019-05-11T09:01:32.997Z,1004.50
2019-05-11T09:02:32.976Z,1004.50
2019-05-11T09:03:32.943Z,1004.51
2019-05-11T09:04:32.935Z,1004.54
2019-05-11T09:05:32.941Z,1004.56
2019-05-11T09:06:32.919Z,1004.54
2019-05-11T09:07:32.912Z,1004.60
2019-05-11T09:08:32.914Z,1004.58
2019-05-11T09:09:32.876Z,1004.61
2019-05-11T09:10:32.879Z,1004.63
2019-05-11T09:11:32.868Z,1004.65
2019-05-11T09:12:32.888Z,1004.67
2019-05-11T09:13:32.832Z,1004.68
2019-05-11T09:14:32.819Z,1004.67
2019-05-11T09:15:37.117Z,1004.71
2019-05-11T09:16:33.800Z,1004.72
2019-05-11T09:17:32.787Z,1004.76
2019-05-11T09:18:32.800Z,1004.77
2019-05-11T09:19:32.763Z,1004.82
2019-05-11T09:20:32.760Z,1004.83
2019-05-11T09:21:32.751Z,1004.84
2019-05-11T09:22:32.763Z,1004.82
2019-05-11T09:23:37.281Z,1004.85
2019-05-11T09:24:33.724Z,1004.83
2019-05-11T09:25:32.723Z,1004.89
2019-05-11T09:26:32.691Z,1004.90
2019-05-11T09:27:32.677Z,1004.91
2019-05-11T09:28:32.666Z,1004.90
2019-05-11T09:29:32.678Z,1004.94
2019-05-11T09:30:32.657Z,1004.93
2019-05-11T09:31:32.637Z,1004.96
2019-05-11T09:32:32.619Z,1004.99
2019-05-11T09:33:32.650Z,1005.01
2019-05-11T09:34:32.597Z,1005.02
2019-05-11T09:35:45.709Z,1005.04
2019-05-11T09:36:33.600Z,1005.05
2019-05-11T09:37:32.561Z,1005.04
2019-05-11T09:38:32.551Z,1005.11
2019-05-11T09:39:32.561Z,1005.13
2019-05-11T09:40:32.532Z,1005.14
2019-05-11T09:41:32.523Z,1005.16
2019-05-11T09:42:32.514Z,1005.14
2019-05-11T09:43:32.500Z,1005.20
2019-05-11T09:44:32.497Z,1005.21
2019-05-11T09:45:44.653Z,1005.22
2019-05-11T09:46:33.481Z,1005.23
2019-05-11T09:47:32.466Z,1005.27
2019-05-11T09:48:32.453Z,1005.29
2019-05-11T09:49:44.059Z,1005.23
2019-05-11T09:50:33.415Z,1005.25
2019-05-11T09:51:32.428Z,1005.29
2019-05-11T09:52:32.751Z,1005.30
2019-05-11T09:53:32.397Z,1005.33
2019-05-11T09:54:32.381Z,1005.32
2019-05-11T09:55:32.362Z,1005.32
2019-05-11T09:56:32.368Z,1005.31
2019-05-11T09:57:32.362Z,1005.32
2019-05-11T09:58:32.334Z,1005.36
2019-05-11T09:59:32.344Z,1005.39
2019-05-11T10:00:32.322Z,1005.42
2019-05-11T10:01:32.317Z,1005.44
2019-05-11T10:02:32.303Z,1005.42
2019-05-11T10:03:32.289Z,1005.46
2019-05-11T10:04:32.274Z,1005.48
2019-05-11T10:05:32.261Z,1005.45
2019-05-11T10:06:32.253Z,1005.48
2019-05-11T10:07:32.667Z,1005.54
2019-05-11T10:08:32.234Z,1005.54
2019-05-11T10:09:32.222Z,1005.51
2019-05-11T10:10:32.210Z,1005.57
2019-05-11T10:11:32.194Z,1005.52
2019-05-11T10:12:32.184Z,1005.55
2019-05-11T10:13:32.174Z,1005.52
2019-05-11T10:14:32.152Z,1005.57
2019-05-11T10:15:32.142Z,1005.55
2019-05-11T10:16:32.170Z,1005.56
2019-05-11T10:17:32.118Z,1005.55
2019-05-11T10:18:32.118Z,1005.61
2019-05-11T10:19:32.140Z,1005.63
2019-05-11T10:20:32.103Z,1005.57
2019-05-11T10:21:32.079Z,1005.57
2019-05-11T10:22:32.088Z,1005.53
2019-05-11T10:23:32.074Z,1005.58
2019-05-11T10:24:32.046Z,1005.64
2019-05-11T10:25:32.048Z,1005.56
2019-05-11T10:26:32.046Z,1005.63
2019-05-11T10:27:32.026Z,1005.66
2019-05-11T10:28:32.005Z,1005.67
2019-05-11T10:29:33.905Z,1005.69
2019-05-11T10:30:31.972Z,1005.72
2019-05-11T10:31:31.963Z,1005.73
2019-05-11T10:32:31.981Z,1005.74
2019-05-11T10:33:31.940Z,1005.72
2019-05-11T10:34:31.935Z,1005.81
2019-05-11T10:35:31.917Z,1005.81
2019-05-11T10:36:31.906Z,1005.78
2019-05-11T10:37:31.907Z,1005.81
2019-05-11T10:38:31.895Z,1005.85
2019-05-11T10:39:31.888Z,1005.87
2019-05-11T10:40:31.880Z,1005.88
2019-05-11T10:41:31.861Z,1005.87
2019-05-11T10:42:31.851Z,1005.89
2019-05-11T10:43:31.907Z,1005.90
2019-05-11T10:44:31.818Z,1005.89
2019-05-11T10:45:31.805Z,1005.92
2019-05-11T10:46:31.819Z,1005.92
2019-05-11T10:47:31.790Z,1005.95
2019-05-11T10:48:31.774Z,1005.97
2019-05-11T10:49:31.772Z,1005.98
2019-05-11T10:50:31.780Z,1005.98
2019-05-11T10:51:31.738Z,1006.00
2019-05-11T10:52:31.733Z,1006.03
2019-05-11T10:53:31.718Z,1006.03
2019-05-11T10:54:31.716Z,1006.10
2019-05-11T10:55:31.694Z,1006.09
2019-05-11T10:56:31.683Z,1006.10
2019-05-11T10:57:31.680Z,1006.10
2019-05-11T10:58:31.660Z,1006.15
2019-05-11T10:59:31.653Z,1006.08
2019-05-11T11:00:31.640Z,1006.09
2019-05-11T11:01:31.654Z,1006.11
2019-05-11T11:02:31.650Z,1006.09
2019-05-11T11:03:31.604Z,1006.15
2019-05-11T11:04:31.618Z,1006.11
2019-05-11T11:05:31.583Z,1006.11
2019-05-11T11:06:31.579Z,1006.09
2019-05-11T11:07:31.587Z,1006.10
2019-05-11T11:08:31.550Z,1006.11
2019-05-11T11:09:31.538Z,1006.15
2019-05-11T11:10:31.526Z,1006.11
2019-05-11T11:11:31.515Z,1006.14
2019-05-11T11:12:31.516Z,1006.14
2019-05-11T11:13:31.506Z,1006.13
2019-05-11T11:14:31.508Z,1006.18
2019-05-11T11:15:31.476Z,1006.16
2019-05-11T11:16:38.761Z,1006.18
2019-05-11T11:17:32.453Z,1006.16
2019-05-11T11:18:31.438Z,1006.20
2019-05-11T11:19:31.438Z,1006.23
2019-05-11T11:20:31.426Z,1006.19
2019-05-11T11:21:31.462Z,1006.21
2019-05-11T11:22:39.818Z,1006.21
2019-05-11T11:23:32.411Z,1006.16
2019-05-11T11:24:31.371Z,1006.20
2019-05-11T11:25:31.359Z,1006.15
2019-05-11T11:26:31.351Z,1006.21
2019-05-11T11:27:31.335Z,1006.17
2019-05-11T11:28:31.344Z,1006.21
2019-05-11T11:29:31.317Z,1006.20
2019-05-11T11:30:31.303Z,1006.20
2019-05-11T11:31:31.294Z,1006.22
2019-05-11T11:32:31.283Z,1006.19
2019-05-11T11:33:31.410Z,1006.24
2019-05-11T11:34:31.453Z,1006.25
2019-05-11T11:35:31.267Z,1006.26
2019-05-11T11:36:31.237Z,1006.25
2019-05-11T11:37:31.234Z,1006.32
2019-05-11T11:38:31.220Z,1006.31
2019-05-11T11:39:31.207Z,1006.30
2019-05-11T11:40:31.198Z,1006.35
2019-05-11T11:41:31.225Z,1006.29
2019-05-11T11:42:31.174Z,1006.38
2019-05-11T11:43:31.164Z,1006.33
2019-05-11T11:44:31.154Z,1006.38
2019-05-11T11:45:31.136Z,1006.37
2019-05-11T11:46:31.124Z,1006.36
2019-05-11T11:47:31.144Z,1006.37
2019-05-11T11:48:31.148Z,1006.39
2019-05-11T11:49:31.110Z,1006.37
2019-05-11T11:50:31.103Z,1006.39
2019-05-11T11:51:31.085Z,1006.38
2019-05-11T11:52:31.069Z,1006.42
2019-05-11T11:53:31.063Z,1006.45
2019-05-11T11:54:31.038Z,1006.45
2019-05-11T11:55:31.027Z,1006.50
2019-05-11T11:56:31.021Z,1006.50
2019-05-11T11:57:31.001Z,1006.45
2019-05-11T11:58:30.998Z,1006.51
2019-05-11T11:59:30.986Z,1006.45
2019-05-11T12:00:30.996Z,1006.47
2019-05-11T12:01:30.991Z,1006.51
2019-05-11T12:02:30.989Z,1006.53
2019-05-11T12:03:30.943Z,1006.51
2019-05-11T12:04:30.947Z,1006.56
2019-05-11T12:05:30.912Z,1006.60